createdAt,value
2023-04-03T00:01:15.394Z,57.31
2023-04-03T00:06:18.138Z,57.58
2023-04-03T00:11:22.611Z,57.44
2023-04-03T00:16:26.752Z,57.66
2023-04-03T00:21:29.658Z,57.80
2023-04-03T00:26:32.442Z,57.81
2023-04-03T00:31:36.626Z,57.72
2023-04-03T00:36:39.443Z,58.07
2023-04-03T00:41:42.327Z,58.35
2023-04-03T00:46:46.464Z,58.19
2023-04-03T00:51:49.763Z,58.41
2023-04-03T00:56:55.789Z,58.32
2023-04-03T01:02:01.264Z,58.55
2023-04-03T01:07:08.728Z,58.40
2023-04-03T01:12:19.314Z,58.46
2023-04-03T01:17:34.315Z,58.56
2023-04-03T01:22:45.481Z,58.81
2023-04-03T01:27:48.297Z,58.88
2023-04-03T01:32:52.478Z,58.97
2023-04-03T01:37:56.149Z,58.86
2023-04-03T01:42:59.194Z,59.11
2023-04-03T01:48:03.629Z,59.16
2023-04-03T01:53:06.451Z,59.38
2023-04-03T01:58:10.113Z,59.44
2023-04-03T02:03:14.267Z,59.43
2023-04-03T02:08:18.901Z,59.38
2023-04-03T02:13:21.694Z,59.69
2023-04-03T02:18:25.813Z,59.65
2023-04-03T02:23:28.547Z,59.83
2023-04-03T02:28:31.368Z,59.88
2023-04-03T02:33:35.765Z,59.82
2023-04-03T02:38:38.995Z,60.07
2023-04-03T02:43:42.048Z,60.08
2023-04-03T02:48:46.503Z,60.18
2023-04-03T02:53:49.569Z,60.25
2023-04-03T02:58:56.867Z,60.26
2023-04-03T03:04:01.934Z,60.39
2023-04-03T03:09:04.950Z,60.35
2023-04-03T03:14:07.964Z,60.51
2023-04-03T03:19:12.332Z,60.78
2023-04-03T03:24:16.719Z,60.75
2023-04-03T03:29:19.474Z,60.85
2023-04-03T03:34:24.118Z,61.03
2023-04-03T03:39:26.960Z,60.99
2023-04-03T03:44:30.062Z,61.17
2023-04-03T03:49:34.503Z,61.31
2023-04-03T03:54:38.394Z,61.32
2023-04-03T03:59:42.745Z,61.26
2023-04-03T04:04:47.184Z,61.53
2023-04-03T04:09:50.953Z,61.51
2023-04-03T04:14:53.777Z,61.70
2023-04-03T04:19:58.134Z,61.65
2023-04-03T04:25:01.223Z,61.81
2023-04-03T04:30:05.423Z,61.98
2023-04-03T04:35:10.875Z,62.04
2023-04-03T04:40:17.798Z,62.01
2023-04-03T04:45:21.419Z,62.03
2023-04-03T04:50:26.055Z,62.14
2023-04-03T04:55:30.212Z,62.36
2023-04-03T05:00:33.093Z,62.40
2023-04-03T05:05:38.007Z,62.59
2023-04-03T05:10:43.149Z,62.63
2023-04-03T05:15:48.110Z,62.88
2023-04-03T05:20:53.698Z,62.72
2023-04-03T05:25:57.869Z,62.80
2023-04-03T05:31:01.554Z,63.12
2023-04-03T05:36:12.978Z,63.01
2023-04-03T05:41:21.590Z,63.19
2023-04-03T05:46:25.003Z,63.23
2023-04-03T05:51:36.151Z,63.39
2023-04-03T05:56:47.220Z,63.33
2023-04-03T06:01:50.486Z,63.50
2023-04-03T06:06:56.936Z,63.57
2023-04-03T06:12:00.416Z,63.64
2023-04-03T06:17:05.226Z,63.50
2023-04-03T06:22:10.128Z,63.59
2023-04-03T06:27:13.456Z,63.59
2023-04-03T06:32:16.338Z,63.51
2023-04-03T06:37:22.784Z,63.55
2023-04-03T06:42:26.338Z,63.66
2023-04-03T06:47:37.486Z,63.79
2023-04-03T06:52:42.154Z,63.67
2023-04-03T06:57:46.407Z,63.73
2023-04-03T07:02:49.346Z,63.77
2023-04-03T07:07:53.513Z,63.93
2023-04-03T07:12:57.103Z,48.13
2023-04-03T07:17:59.972Z,45.53
2023-04-03T07:23:04.451Z,45.06
2023-04-03T07:28:09.163Z,44.66
2023-04-03T07:33:12.656Z,44.88
2023-04-03T07:38:17.027Z,45.15
2023-04-03T07:43:21.712Z,45.93
2023-04-03T07:48:26.444Z,45.84
2023-04-03T07:53:31.100Z,46.94
2023-04-03T07:58:34.221Z,48.44
2023-04-03T08:03:38.356Z,49.39
2023-04-03T08:08:43.214Z,50.14
2023-04-03T08:13:47.148Z,50.89
2023-04-03T08:18:50.825Z,51.56
2023-04-03T08:23:54.966Z,52.35
2023-04-03T08:28:57.834Z,53.13
2023-04-03T08:34:00.749Z,53.80
2023-04-03T08:39:05.434Z,54.32
2023-04-03T08:44:27.260Z,55.00
2023-04-03T08:49:33.839Z,55.61
2023-04-03T08:54:50.793Z,55.88
2023-04-03T08:59:54.052Z,56.40
2023-04-03T09:04:57.791Z,56.78
2023-04-03T09:10:04.214Z,57.00
2023-04-03T09:15:20.040Z,57.30
2023-04-03T09:20:40.412Z,57.64
2023-04-03T09:25:45.946Z,57.79
2023-04-03T09:30:48.695Z,58.10
2023-04-03T09:35:52.157Z,58.34
2023-04-03T09:41:08.476Z,58.52
2023-04-03T09:46:21.321Z,58.70
2023-04-03T09:51:28.369Z,59.05
2023-04-03T09:56:33.050Z,59.17
2023-04-03T10:01:37.568Z,59.28
2023-04-03T10:06:47.669Z,59.34
2023-04-03T10:12:05.853Z,59.30
2023-04-03T10:17:24.158Z,59.58
2023-04-03T10:22:35.842Z,59.47
2023-04-03T10:27:50.891Z,59.82
2023-04-03T10:33:05.775Z,59.73
2023-04-03T10:38:20.382Z,59.75
2023-04-03T10:43:35.316Z,59.66
2023-04-03T10:49:02.429Z,59.71
2023-04-03T10:54:11.373Z,59.38
2023-04-03T10:59:30.575Z,59.32
2023-04-03T11:04:38.153Z,59.43
2023-04-03T11:09:44.684Z,59.65
2023-04-03T11:14:52.455Z,59.52
2023-04-03T11:20:02.595Z,59.62
2023-04-03T11:25:12.440Z,59.76
2023-04-03T11:30:22.432Z,59.41
2023-04-03T11:35:26.403Z,59.23
2023-04-03T11:40:33.241Z,59.10
2023-04-03T11:45:52.811Z,59.10
2023-04-03T11:50:56.208Z,59.11
2023-04-03T11:56:04.976Z,58.83
2023-04-03T12:01:11.851Z,58.44
2023-04-03T12:06:51.145Z,58.74
2023-04-03T12:11:55.243Z,59.50
2023-04-03T12:17:00.817Z,60.01
2023-04-03T12:22:21.516Z,59.92
2023-04-03T12:27:31.287Z,59.18
2023-04-03T12:32:49.262Z,58.46
2023-04-03T12:38:25.218Z,58.76
2023-04-03T12:43:45.255Z,58.39
2023-04-03T12:48:55.999Z,58.82
2023-04-03T12:54:04.323Z,59.50
2023-04-03T12:59:18.617Z,59.45
2023-04-03T13:04:23.337Z,59.63
2023-04-03T13:09:29.497Z,59.48
2023-04-03T13:14:33.708Z,59.29
2023-04-03T13:19:38.384Z,58.95
2023-04-03T13:24:41.588Z,53.98
2023-04-03T13:29:45.206Z,55.22
2023-04-03T13:34:50.433Z,44.80
2023-04-03T13:40:03.048Z,51.18
2023-04-03T13:45:13.746Z,52.64
2023-04-03T13:50:22.163Z,53.16
2023-04-03T13:55:27.705Z,53.43
2023-04-03T14:00:34.951Z,53.69
2023-04-03T14:05:39.672Z,54.22
2023-04-03T14:10:42.866Z,54.52
2023-04-03T14:15:46.373Z,54.88
2023-04-03T14:20:51.230Z,55.43
2023-04-03T14:25:54.318Z,55.70
2023-04-03T14:30:57.210Z,56.18
2023-04-03T14:36:01.504Z,56.54
2023-04-03T14:41:15.607Z,56.73
2023-04-03T14:46:26.400Z,56.96
2023-04-03T14:51:32.108Z,57.23
2023-04-03T14:56:35.003Z,57.56
2023-04-03T15:01:37.913Z,57.72
2023-04-03T15:06:42.308Z,57.96
2023-04-03T15:11:45.231Z,58.20
2023-04-03T15:16:48.778Z,58.40
2023-04-03T15:21:52.945Z,58.53
2023-04-03T15:26:56.168Z,58.83
2023-04-03T15:31:58.989Z,58.74
2023-04-03T15:37:03.396Z,59.06
2023-04-03T15:42:07.192Z,59.18
2023-04-03T15:47:11.234Z,59.39
2023-04-03T15:52:15.767Z,59.58
2023-04-03T15:57:18.924Z,59.72
2023-04-03T16:02:22.542Z,54.98
2023-04-03T16:07:27.055Z,57.28
2023-04-03T16:12:29.831Z,58.21
2023-04-03T16:17:34.606Z,59.09
2023-04-03T16:22:39.216Z,59.74
2023-04-03T16:27:43.968Z,59.66
2023-04-03T16:32:47.658Z,59.65
2023-04-03T16:37:51.868Z,59.67
2023-04-03T16:42:54.935Z,59.60
2023-04-03T16:47:57.833Z,59.78
2023-04-03T16:53:03.843Z,59.86
2023-04-03T16:58:06.922Z,60.10
2023-04-03T17:03:09.904Z,60.03
2023-04-03T17:08:14.853Z,60.08
2023-04-03T17:13:17.596Z,60.29
2023-04-03T17:18:20.923Z,60.35
2023-04-03T17:23:25.957Z,60.69
2023-04-03T17:28:29.193Z,60.68
2023-04-03T17:33:32.147Z,60.90
2023-04-03T17:38:36.765Z,60.84
2023-04-03T17:43:39.488Z,61.17
2023-04-03T17:48:42.706Z,61.09
2023-04-03T17:53:47.011Z,61.16
2023-04-03T17:58:52.787Z,61.27
2023-04-03T18:03:58.348Z,61.40
2023-04-03T18:09:07.384Z,61.26
2023-04-03T18:14:11.127Z,61.53
2023-04-03T18:24:26.171Z,62.02
2023-04-03T18:29:31.532Z,62.69
2023-04-03T18:34:34.429Z,62.77
2023-04-03T18:39:38.817Z,62.75
2023-04-03T18:44:43.890Z,62.37
2023-04-03T18:49:46.957Z,62.57
2023-04-03T18:54:51.210Z,62.66
2023-04-03T18:59:54.332Z,62.61
2023-04-03T19:04:57.435Z,62.86
2023-04-03T19:10:02.663Z,62.96
2023-04-03T19:15:06.671Z,63.07
2023-04-03T19:20:11.319Z,62.99
2023-04-03T19:25:15.789Z,62.88
2023-04-03T19:30:18.599Z,62.73
2023-04-03T19:35:21.334Z,62.81
2023-04-03T19:40:28.926Z,62.72
2023-04-03T19:45:32.954Z,62.55
2023-04-03T19:50:35.925Z,62.21
2023-04-03T19:55:40.383Z,61.86
2023-04-03T20:00:43.424Z,61.55
2023-04-03T20:05:46.764Z,61.55
2023-04-03T20:10:50.969Z,61.38
2023-04-03T20:15:53.842Z,60.88
2023-04-03T20:20:59.564Z,60.40
2023-04-03T20:26:14.591Z,60.45
2023-04-03T20:31:18.722Z,59.76
2023-04-03T20:36:23.513Z,59.77
2023-04-03T20:41:27.964Z,59.69
2023-04-03T20:46:48.942Z,59.54
2023-04-03T20:51:54.098Z,59.55
2023-04-03T20:56:58.823Z,59.61
2023-04-03T21:02:01.552Z,59.51
2023-04-03T21:07:43.277Z,59.45
2023-04-03T21:13:23.741Z,59.35
2023-04-03T21:18:52.440Z,59.44
2023-04-03T21:23:56.268Z,59.50
2023-04-03T21:28:59.337Z,59.37
2023-04-03T21:34:03.472Z,59.43
2023-04-03T21:39:06.315Z,59.05
2023-04-03T21:44:09.035Z,59.15
2023-04-03T21:49:13.111Z,59.05
2023-04-03T21:54:15.926Z,58.79
2023-04-03T21:59:18.895Z,58.93
2023-04-03T22:04:23.652Z,58.87
2023-04-03T22:09:26.667Z,58.61
2023-04-03T22:14:30.925Z,58.51
2023-04-03T22:19:35.527Z,58.36
2023-04-03T22:24:38.263Z,58.29
2023-04-03T22:29:41.253Z,58.33
2023-04-03T22:34:46.497Z,58.55
2023-04-03T22:39:49.265Z,58.60
2023-04-03T22:44:53.162Z,58.66
2023-04-03T22:49:57.221Z,58.88
2023-04-03T22:55:06.276Z,58.92
2023-04-03T23:00:21.638Z,59.30
2023-04-03T23:05:25.977Z,59.62
2023-04-03T23:10:28.775Z,59.77
2023-04-03T23:15:31.519Z,59.94
2023-04-03T23:20:35.790Z,60.17
2023-04-03T23:25:38.569Z,60.28
2023-04-03T23:30:42.242Z,60.53
2023-04-03T23:35:48.501Z,60.62
2023-04-03T23:40:51.564Z,60.74
2023-04-03T23:45:54.412Z,60.96
2023-04-03T23:50:58.482Z,61.20
2023-04-03T23:56:01.234Z,61.44
